sensor_id;sensor_type;location;lat;lon;timestamp;P1;durP1;ratioP1;P2;durP2;ratioP2
43511;SDS011;34054;52.100;5.116;2023-06-19T00:00:16;4.88;;;4.32;;
43511;SDS011;34054;52.100;5.116;2023-06-19T00:00:48;6.97;;;6.18;;
43511;SDS011;34054;52.100;5.116;2023-06-19T00:01:19;6.07;;;4.65;;
43511;SDS011;34054;52.100;5.116;2023-06-19T00:01:51;6.05;;;5.25;;
43511;SDS011;34054;52.100;5.116;2023-06-19T00:02:22;7.40;;;5.60;;
43511;SDS011;34054;52.100;5.116;2023-06-19T00:02:54;7.72;;;4.90;;
43511;SDS011;34054;52.100;5.116;2023-06-19T00:03:26;6.97;;;5.15;;
43511;SDS011;34054;52.100;5.116;2023-06-19T00:03:57;6.20;;;4.47;;
43511;SDS011;34054;52.100;5.116;2023-06-19T00:04:29;6.20;;;5.47;;
43511;SDS011;34054;52.100;5.116;2023-06-19T00:05:00;7.97;;;4.97;;
43511;SDS011;34054;52.100;5.116;2023-06-19T00:05:31;6.78;;;5.20;;
43511;SDS011;34054;52.100;5.116;2023-06-19T00:06:04;8.02;;;5.35;;
43511;SDS011;34054;52.100;5.116;2023-06-19T00:06:36;5.43;;;4.93;;
43511;SDS011;34054;52.100;5.116;2023-06-19T00:07:07;6.38;;;4.95;;
43511;SDS011;34054;52.100;5.116;2023-06-19T00:07:38;8.43;;;5.40;;
43511;SDS011;34054;52.100;5.116;2023-06-19T00:08:11;7.90;;;4.55;;
43511;SDS011;34054;52.100;5.116;2023-06-19T00:08:42;6.97;;;5.75;;
43511;SDS011;34054;52.100;5.116;2023-06-19T00:09:13;13.30;;;5.35;;
43511;SDS011;34054;52.100;5.116;2023-06-19T00:09:46;7.50;;;5.40;;
43511;SDS011;34054;52.100;5.116;2023-06-19T00:10:18;6.97;;;6.03;;
43511;SDS011;34054;52.100;5.116;2023-06-19T00:10:50;7.93;;;6.35;;
43511;SDS011;34054;52.100;5.116;2023-06-19T00:11:22;7.07;;;5.60;;
43511;SDS011;34054;52.100;5.116;2023-06-19T00:11:53;10.50;;;6.20;;
43511;SDS011;34054;52.100;5.116;2023-06-19T00:12:25;8.73;;;6.75;;
43511;SDS011;34054;52.100;5.116;2023-06-19T00:12:57;14.68;;;6.53;;
43511;SDS011;34054;52.100;5.116;2023-06-19T00:13:31;10.02;;;7.00;;
43511;SDS011;34054;52.100;5.116;2023-06-19T00:14:04;18.25;;;6.13;;
43511;SDS011;34054;52.100;5.116;2023-06-19T00:14:36;9.50;;;6.13;;
43511;SDS011;34054;52.100;5.116;2023-06-19T00:15:08;9.15;;;6.63;;
43511;SDS011;34054;52.100;5.116;2023-06-19T00:15:40;7.65;;;5.80;;
43511;SDS011;34054;52.100;5.116;2023-06-19T00:16:12;6.93;;;5.80;;
43511;SDS011;34054;52.100;5.116;2023-06-19T00:16:43;8.65;;;5.18;;
43511;SDS011;34054;52.100;5.116;2023-06-19T00:17:15;6.22;;;5.38;;
43511;SDS011;34054;52.100;5.116;2023-06-19T00:17:47;7.07;;;6.15;;
43511;SDS011;34054;52.100;5.116;2023-06-19T00:18:18;7.72;;;6.07;;
43511;SDS011;34054;52.100;5.116;2023-06-19T00:18:50;10.25;;;7.45;;
43511;SDS011;34054;52.100;5.116;2023-06-19T00:19:26;6.35;;;5.30;;
43511;SDS011;34054;52.100;5.116;2023-06-19T00:19:57;8.10;;;5.50;;
43511;SDS011;34054;52.100;5.116;2023-06-19T00:20:28;13.02;;;6.50;;
43511;SDS011;34054;52.100;5.116;2023-06-19T00:21:01;7.82;;;7.03;;
43511;SDS011;34054;52.100;5.116;2023-06-19T00:21:32;29.30;;;5.65;;
43511;SDS011;34054;52.100;5.116;2023-06-19T00:22:03;16.25;;;6.85;;
43511;SDS011;34054;52.100;5.116;2023-06-19T00:22:35;8.68;;;6.25;;
43511;SDS011;34054;52.100;5.116;2023-06-19T00:23:07;6.93;;;5.13;;
43511;SDS011;34054;52.100;5.116;2023-06-19T00:23:42;6.13;;;5.50;;
43511;SDS011;34054;52.100;5.116;2023-06-19T00:24:13;12.18;;;5.97;;
43511;SDS011;34054;52.100;5.116;2023-06-19T00:24:45;8.68;;;6.20;;
43511;SDS011;34054;52.100;5.116;2023-06-19T00:25:18;9.93;;;7.43;;
43511;SDS011;34054;52.100;5.116;2023-06-19T00:25:49;11.45;;;5.63;;
43511;SDS011;34054;52.100;5.116;2023-06-19T00:26:22;9.15;;;6.18;;
43511;SDS011;34054;52.100;5.116;2023-06-19T00:26:57;11.15;;;5.63;;
43511;SDS011;34054;52.100;5.116;2023-06-19T00:27:32;7.25;;;5.03;;
43511;SDS011;34054;52.100;5.116;2023-06-19T00:28:05;7.18;;;5.63;;
43511;SDS011;34054;52.100;5.116;2023-06-19T00:28:42;5.95;;;5.35;;
43511;SDS011;34054;52.100;5.116;2023-06-19T00:29:16;9.88;;;5.45;;
43511;SDS011;34054;52.100;5.116;2023-06-19T00:29:48;8.02;;;4.05;;
43511;SDS011;34054;52.100;5.116;2023-06-19T00:30:19;8.23;;;5.68;;
43511;SDS011;34054;52.100;5.116;2023-06-19T00:30:50;5.78;;;4.40;;
43511;SDS011;34054;52.100;5.116;2023-06-19T00:31:23;6.75;;;5.10;;
43511;SDS011;34054;52.100;5.116;2023-06-19T00:31:54;4.63;;;4.13;;
43511;SDS011;34054;52.100;5.116;2023-06-19T00:32:25;8.27;;;4.88;;
43511;SDS011;34054;52.100;5.116;2023-06-19T00:32:58;7.38;;;5.70;;
43511;SDS011;34054;52.100;5.116;2023-06-19T00:33:33;5.85;;;4.45;;
43511;SDS011;34054;52.100;5.116;2023-06-19T00:34:04;9.00;;;5.93;;
43511;SDS011;34054;52.100;5.116;2023-06-19T00:34:37;7.20;;;4.93;;
43511;SDS011;34054;52.100;5.116;2023-06-19T00:35:08;6.88;;;5.22;;
43511;SDS011;34054;52.100;5.116;2023-06-19T00:35:39;8.00;;;5.00;;
43511;SDS011;34054;52.100;5.116;2023-06-19T00:36:12;21.73;;;5.53;;
43511;SDS011;34054;52.100;5.116;2023-06-19T00:36:45;5.40;;;4.43;;
43511;SDS011;34054;52.100;5.116;2023-06-19T00:37:17;5.63;;;4.32;;
43511;SDS011;34054;52.100;5.116;2023-06-19T00:37:48;18.40;;;5.38;;
43511;SDS011;34054;52.100;5.116;2023-06-19T00:38:20;16.20;;;4.95;;
43511;SDS011;34054;52.100;5.116;2023-06-19T00:38:52;4.53;;;4.10;;
43511;SDS011;34054;52.100;5.116;2023-06-19T00:39:23;10.43;;;5.80;;
43511;SDS011;34054;52.100;5.116;2023-06-19T00:39:55;6.70;;;4.90;;
43511;SDS011;34054;52.100;5.116;2023-06-19T00:40:30;6.70;;;3.78;;
43511;SDS011;34054;52.100;5.116;2023-06-19T00:41:03;5.85;;;4.55;;
43511;SDS011;34054;52.100;5.116;2023-06-19T00:41:35;4.75;;;4.07;;
43511;SDS011;34054;52.100;5.116;2023-06-19T00:42:07;9.85;;;4.07;;
43511;SDS011;34054;52.100;5.116;2023-06-19T00:42:41;4.28;;;3.63;;
43511;SDS011;34054;52.100;5.116;2023-06-19T00:43:13;5.43;;;3.70;;
43511;SDS011;34054;52.100;5.116;2023-06-19T00:43:45;6.28;;;3.65;;
43511;SDS011;34054;52.100;5.116;2023-06-19T00:44:16;5.18;;;4.53;;
43511;SDS011;34054;52.100;5.116;2023-06-19T00:44:47;5.15;;;3.92;;
43511;SDS011;34054;52.100;5.116;2023-06-19T00:45:20;5.85;;;4.90;;
43511;SDS011;34054;52.100;5.116;2023-06-19T00:45:51;16.58;;;5.70;;
43511;SDS011;34054;52.100;5.116;2023-06-19T00:46:22;10.70;;;5.40;;
43511;SDS011;34054;52.100;5.116;2023-06-19T00:46:55;5.53;;;4.57;;
43511;SDS011;34054;52.100;5.116;2023-06-19T00:47:30;5.05;;;4.05;;
43511;SDS011;34054;52.100;5.116;2023-06-19T00:48:01;5.00;;;3.78;;
43511;SDS011;34054;52.100;5.116;2023-06-19T00:48:34;5.18;;;4.50;;
43511;SDS011;34054;52.100;5.116;2023-06-19T00:49:07;21.38;;;5.05;;
43511;SDS011;34054;52.100;5.116;2023-06-19T00:49:39;5.68;;;4.50;;
43511;SDS011;34054;52.100;5.116;2023-06-19T00:50:10;6.75;;;5.43;;
43511;SDS011;34054;52.100;5.116;2023-06-19T00:50:43;9.75;;;5.38;;
43511;SDS011;34054;52.100;5.116;2023-06-19T00:51:14;10.45;;;5.15;;
43511;SDS011;34054;52.100;5.116;2023-06-19T00:51:47;3.78;;;3.40;;
43511;SDS011;34054;52.100;5.116;2023-06-19T00:52:18;6.15;;;5.10;;
43511;SDS011;34054;52.100;5.116;2023-06-19T00:52:49;7.45;;;4.68;;
43511;SDS011;34054;52.100;5.116;2023-06-19T00:53:22;6.90;;;4.32;;
43511;SDS011;34054;52.100;5.116;2023-06-19T00:53:54;8.13;;;5.35;;
43511;SDS011;34054;52.100;5.116;2023-06-19T00:54:25;6.13;;;4.43;;
43511;SDS011;34054;52.100;5.116;2023-06-19T00:54:58;7.13;;;4.55;;
43511;SDS011;34054;52.100;5.116;2023-06-19T00:55:30;6.93;;;4.28;;
43511;SDS011;34054;52.100;5.116;2023-06-19T00:56:04;7.07;;;5.05;;
43511;SDS011;34054;52.100;5.116;2023-06-19T00:56:37;5.10;;;4.60;;
43511;SDS011;34054;52.100;5.116;2023-06-19T00:57:10;5.63;;;3.60;;
43511;SDS011;34054;52.100;5.116;2023-06-19T00:57:41;5.85;;;5.25;;
43511;SDS011;34054;52.100;5.116;2023-06-19T00:58:15;12.38;;;4.55;;
43511;SDS011;34054;52.100;5.116;2023-06-19T00:58:46;7.43;;;4.88;;
43511;SDS011;34054;52.100;5.116;2023-06-19T00:59:18;5.25;;;4.25;;
43511;SDS011;34054;52.100;5.116;2023-06-19T00:59:51;6.03;;;4.95;;
43511;SDS011;34054;52.100;5.116;2023-06-19T01:00:23;7.20;;;4.05;;
43511;SDS011;34054;52.100;5.116;2023-06-19T01:00:54;5.38;;;3.85;;
43511;SDS011;34054;52.100;5.116;2023-06-19T01:01:27;6.05;;;4.60;;
43511;SDS011;34054;52.100;5.116;2023-06-19T01:02:00;5.65;;;4.97;;
43511;SDS011;34054;52.100;5.116;2023-06-19T01:02:32;9.13;;;5.15;;
43511;SDS011;34054;52.100;5.116;2023-06-19T01:03:04;12.98;;;4.70;;
43511;SDS011;34054;52.100;5.116;2023-06-19T01:03:36;6.68;;;4.63;;
43511;SDS011;34054;52.100;5.116;2023-06-19T01:04:07;9.82;;;4.97;;
43511;SDS011;34054;52.100;5.116;2023-06-19T01:04:39;3.55;;;3.00;;
43511;SDS011;34054;52.100;5.116;2023-06-19T01:05:12;5.80;;;4.10;;
43511;SDS011;34054;52.100;5.116;2023-06-19T01:05:43;6.22;;;4.03;;
43511;SDS011;34054;52.100;5.116;2023-06-19T01:06:22;6.05;;;4.72;;
43511;SDS011;34054;52.100;5.116;2023-06-19T01:07:01;4.88;;;3.78;;
43511;SDS011;34054;52.100;5.116;2023-06-19T01:07:41;4.78;;;3.42;;
43511;SDS011;34054;52.100;5.116;2023-06-19T01:08:21;4.55;;;3.38;;
43511;SDS011;34054;52.100;5.116;2023-06-19T01:09:09;5.20;;;4.13;;
43511;SDS011;34054;52.100;5.116;2023-06-19T01:09:46;5.63;;;4.57;;
43511;SDS011;34054;52.100;5.116;2023-06-19T01:10:22;5.07;;;3.05;;
43511;SDS011;34054;52.100;5.116;2023-06-19T01:10:59;4.50;;;3.80;;
43511;SDS011;34054;52.100;5.116;2023-06-19T01:11:35;4.90;;;3.53;;
43511;SDS011;34054;52.100;5.116;2023-06-19T01:12:12;3.35;;;2.10;;
43511;SDS011;34054;52.100;5.116;2023-06-19T01:12:49;7.85;;;3.15;;
43511;SDS011;34054;52.100;5.116;2023-06-19T01:13:27;3.72;;;2.30;;
43511;SDS011;34054;52.100;5.116;2023-06-19T01:14:06;5.00;;;2.80;;
43511;SDS011;34054;52.100;5.116;2023-06-19T01:14:43;4.78;;;3.65;;
43511;SDS011;34054;52.100;5.116;2023-06-19T01:15:20;3.58;;;2.40;;
43511;SDS011;34054;52.100;5.116;2023-06-19T01:15:53;3.33;;;2.10;;
43511;SDS011;34054;52.100;5.116;2023-06-19T01:16:29;6.40;;;1.65;;
43511;SDS011;34054;52.100;5.116;2023-06-19T01:17:01;3.00;;;2.25;;
43511;SDS011;34054;52.100;5.116;2023-06-19T01:17:33;4.22;;;1.60;;
43511;SDS011;34054;52.100;5.116;2023-06-19T01:18:07;3.72;;;2.08;;
43511;SDS011;34054;52.100;5.116;2023-06-19T01:18:41;4.50;;;2.90;;
43511;SDS011;34054;52.100;5.116;2023-06-19T01:19:15;3.08;;;1.85;;
43511;SDS011;34054;52.100;5.116;2023-06-19T01:19:51;3.65;;;2.38;;
43511;SDS011;34054;52.100;5.116;2023-06-19T01:20:22;1.67;;;1.20;;
43511;SDS011;34054;52.100;5.116;2023-06-19T01:20:54;2.85;;;1.95;;
43511;SDS011;34054;52.100;5.116;2023-06-19T01:21:25;9.10;;;1.83;;
43511;SDS011;34054;52.100;5.116;2023-06-19T01:22:01;2.63;;;2.13;;
43511;SDS011;34054;52.100;5.116;2023-06-19T01:22:33;3.47;;;2.08;;
43511;SDS011;34054;52.100;5.116;2023-06-19T01:23:07;2.60;;;1.60;;
43511;SDS011;34054;52.100;5.116;2023-06-19T01:23:40;3.47;;;1.70;;
43511;SDS011;34054;52.100;5.116;2023-06-19T01:24:11;2.83;;;1.20;;
43511;SDS011;34054;52.100;5.116;2023-06-19T01:24:42;2.40;;;1.50;;
43511;SDS011;34054;52.100;5.116;2023-06-19T01:25:13;1.73;;;1.30;;
43511;SDS011;34054;52.100;5.116;2023-06-19T01:25:46;1.92;;;1.42;;
43511;SDS011;34054;52.100;5.116;2023-06-19T01:26:17;1.73;;;1.55;;
43511;SDS011;34054;52.100;5.116;2023-06-19T01:26:48;2.45;;;1.83;;
43511;SDS011;34054;52.100;5.116;2023-06-19T01:27:21;3.50;;;2.63;;
43511;SDS011;34054;52.100;5.116;2023-06-19T01:27:52;3.00;;;1.98;;
43511;SDS011;34054;52.100;5.116;2023-06-19T01:28:24;2.15;;;1.35;;
43511;SDS011;34054;52.100;5.116;2023-06-19T01:28:56;3.38;;;2.28;;
43511;SDS011;34054;52.100;5.116;2023-06-19T01:29:29;3.60;;;2.22;;
43511;SDS011;34054;52.100;5.116;2023-06-19T01:30:01;2.65;;;1.73;;
43511;SDS011;34054;52.100;5.116;2023-06-19T01:30:34;2.65;;;1.92;;
43511;SDS011;34054;52.100;5.116;2023-06-19T01:31:08;5.10;;;2.05;;
43511;SDS011;34054;52.100;5.116;2023-06-19T01:31:45;8.93;;;2.25;;
43511;SDS011;34054;52.100;5.116;2023-06-19T01:32:24;3.00;;;2.30;;
43511;SDS011;34054;52.100;5.116;2023-06-19T01:33:03;2.05;;;1.05;;
43511;SDS011;34054;52.100;5.116;2023-06-19T01:33:43;3.50;;;1.75;;
43511;SDS011;34054;52.100;5.116;2023-06-19T01:34:17;9.73;;;2.58;;
43511;SDS011;34054;52.100;5.116;2023-06-19T01:34:51;2.65;;;1.73;;
43511;SDS011;34054;52.100;5.116;2023-06-19T01:35:26;1.83;;;1.45;;
43511;SDS011;34054;52.100;5.116;2023-06-19T01:35:59;1.75;;;0.98;;
43511;SDS011;34054;52.100;5.116;2023-06-19T01:36:33;2.30;;;1.63;;
43511;SDS011;34054;52.100;5.116;2023-06-19T01:37:08;6.30;;;1.98;;
43511;SDS011;34054;52.100;5.116;2023-06-19T01:37:42;3.78;;;2.22;;
43511;SDS011;34054;52.100;5.116;2023-06-19T01:38:16;4.93;;;1.80;;
43511;SDS011;34054;52.100;5.116;2023-06-19T01:38:47;2.22;;;1.55;;
43511;SDS011;34054;52.100;5.116;2023-06-19T01:39:19;3.13;;;1.67;;
43511;SDS011;34054;52.100;5.116;2023-06-19T01:39:54;6.60;;;2.75;;
43511;SDS011;34054;52.100;5.116;2023-06-19T01:40:27;4.25;;;2.22;;
43511;SDS011;34054;52.100;5.116;2023-06-19T01:41:02;3.35;;;2.78;;
43511;SDS011;34054;52.100;5.116;2023-06-19T01:41:36;2.22;;;1.55;;
43511;SDS011;34054;52.100;5.116;2023-06-19T01:42:09;2.92;;;1.75;;
43511;SDS011;34054;52.100;5.116;2023-06-19T01:42:42;3.20;;;2.20;;
43511;SDS011;34054;52.100;5.116;2023-06-19T01:43:15;6.63;;;2.22;;
43511;SDS011;34054;52.100;5.116;2023-06-19T01:43:47;3.03;;;2.25;;
43511;SDS011;34054;52.100;5.116;2023-06-19T01:44:20;4.70;;;2.63;;
43511;SDS011;34054;52.100;5.116;2023-06-19T01:44:55;3.25;;;2.08;;
43511;SDS011;34054;52.100;5.116;2023-06-19T01:45:26;3.65;;;2.05;;
43511;SDS011;34054;52.100;5.116;2023-06-19T01:45:59;2.88;;;1.80;;
43511;SDS011;34054;52.100;5.116;2023-06-19T01:46:32;2.58;;;1.55;;
43511;SDS011;34054;52.100;5.116;2023-06-19T01:47:07;3.65;;;2.72;;
43511;SDS011;34054;52.100;5.116;2023-06-19T01:47:39;1.92;;;1.45;;
43511;SDS011;34054;52.100;5.116;2023-06-19T01:48:13;2.83;;;1.63;;
43511;SDS011;34054;52.100;5.116;2023-06-19T01:48:48;4.07;;;1.67;;
43511;SDS011;34054;52.100;5.116;2023-06-19T01:49:19;3.10;;;2.13;;
43511;SDS011;34054;52.100;5.116;2023-06-19T01:49:54;2.70;;;1.48;;
43511;SDS011;34054;52.100;5.116;2023-06-19T01:50:25;1.63;;;1.45;;
43511;SDS011;34054;52.100;5.116;2023-06-19T01:50:56;3.83;;;2.22;;
43511;SDS011;34054;52.100;5.116;2023-06-19T01:51:29;1.83;;;1.63;;
43511;SDS011;34054;52.100;5.116;2023-06-19T01:52:03;5.30;;;2.15;;
43511;SDS011;34054;52.100;5.116;2023-06-19T01:52:36;3.60;;;2.75;;
43511;SDS011;34054;52.100;5.116;2023-06-19T01:53:09;3.75;;;1.90;;
43511;SDS011;34054;52.100;5.116;2023-06-19T01:53:40;3.03;;;2.15;;
43511;SDS011;34054;52.100;5.116;2023-06-19T01:54:11;1.92;;;1.27;;
43511;SDS011;34054;52.100;5.116;2023-06-19T01:54:43;2.67;;;2.10;;
43511;SDS011;34054;52.100;5.116;2023-06-19T01:55:15;1.98;;;1.77;;
43511;SDS011;34054;52.100;5.116;2023-06-19T01:55:46;3.80;;;2.72;;
43511;SDS011;34054;52.100;5.116;2023-06-19T01:56:19;3.28;;;1.50;;
43511;SDS011;34054;52.100;5.116;2023-06-19T01:56:50;5.15;;;2.13;;
43511;SDS011;34054;52.100;5.116;2023-06-19T01:57:21;3.42;;;1.88;;
43511;SDS011;34054;52.100;5.116;2023-06-19T01:57:54;5.05;;;1.42;;
43511;SDS011;34054;52.100;5.116;2023-06-19T01:58:25;3.72;;;2.13;;
43511;SDS011;34054;52.100;5.116;2023-06-19T01:58:56;2.72;;;1.63;;
43511;SDS011;34054;52.100;5.116;2023-06-19T01:59:28;3.70;;;2.38;;
43511;SDS011;34054;52.100;5.116;2023-06-19T02:00:00;4.32;;;1.65;;
43511;SDS011;34054;52.100;5.116;2023-06-19T02:00:31;3.03;;;2.00;;
43511;SDS011;34054;52.100;5.116;2023-06-19T02:01:05;3.47;;;1.95;;
43511;SDS011;34054;52.100;5.116;2023-06-19T02:01:37;3.08;;;1.75;;
43511;SDS011;34054;52.100;5.116;2023-06-19T02:02:08;3.22;;;2.75;;
43511;SDS011;34054;52.100;5.116;2023-06-19T02:02:41;2.60;;;2.03;;
43511;SDS011;34054;52.100;5.116;2023-06-19T02:03:13;3.22;;;2.13;;
43511;SDS011;34054;52.100;5.116;2023-06-19T02:03:45;3.67;;;1.83;;
43511;SDS011;34054;52.100;5.116;2023-06-19T02:04:17;2.58;;;2.05;;
43511;SDS011;34054;52.100;5.116;2023-06-19T02:04:48;2.47;;;1.58;;
43511;SDS011;34054;52.100;5.116;2023-06-19T02:05:19;6.65;;;2.58;;
43511;SDS011;34054;52.100;5.116;2023-06-19T02:05:52;4.55;;;2.70;;
43511;SDS011;34054;52.100;5.116;2023-06-19T02:06:23;3.55;;;2.53;;
43511;SDS011;34054;52.100;5.116;2023-06-19T02:06:54;3.92;;;2.13;;
43511;SDS011;34054;52.100;5.116;2023-06-19T02:07:26;3.67;;;2.55;;
43511;SDS011;34054;52.100;5.116;2023-06-19T02:07:59;3.75;;;2.67;;
43511;SDS011;34054;52.100;5.116;2023-06-19T02:08:30;5.57;;;3.08;;
43511;SDS011;34054;52.100;5.116;2023-06-19T02:09:01;3.42;;;2.90;;
43511;SDS011;34054;52.100;5.116;2023-06-19T02:09:35;8.23;;;2.42;;
43511;SDS011;34054;52.100;5.116;2023-06-19T02:10:07;9.75;;;4.07;;
43511;SDS011;34054;52.100;5.116;2023-06-19T02:10:38;4.30;;;2.70;;
43511;SDS011;34054;52.100;5.116;2023-06-19T02:11:11;6.18;;;3.33;;
43511;SDS011;34054;52.100;5.116;2023-06-19T02:11:42;5.78;;;2.85;;
43511;SDS011;34054;52.100;5.116;2023-06-19T02:12:13;4.75;;;3.38;;
43511;SDS011;34054;52.100;5.116;2023-06-19T02:12:45;3.53;;;2.38;;
43511;SDS011;34054;52.100;5.116;2023-06-19T02:13:16;4.18;;;3.17;;
43511;SDS011;34054;52.100;5.116;2023-06-19T02:13:48;4.32;;;2.88;;
43511;SDS011;34054;52.100;5.116;2023-06-19T02:14:20;2.88;;;2.15;;
43511;SDS011;34054;52.100;5.116;2023-06-19T02:14:51;2.83;;;2.25;;
43511;SDS011;34054;52.100;5.116;2023-06-19T02:15:22;5.55;;;3.35;;
43511;SDS011;34054;52.100;5.116;2023-06-19T02:15:53;4.43;;;2.55;;
43511;SDS011;34054;52.100;5.116;2023-06-19T02:16:25;3.80;;;3.35;;
43511;SDS011;34054;52.100;5.116;2023-06-19T02:16:57;4.10;;;2.92;;
43511;SDS011;34054;52.100;5.116;2023-06-19T02:17:28;10.15;;;4.13;;
43511;SDS011;34054;52.100;5.116;2023-06-19T02:17:59;5.28;;;2.90;;
43511;SDS011;34054;52.100;5.116;2023-06-19T02:18:31;4.40;;;3.40;;
43511;SDS011;34054;52.100;5.116;2023-06-19T02:19:06;7.30;;;3.83;;
43511;SDS011;34054;52.100;5.116;2023-06-19T02:19:37;3.72;;;2.70;;
43511;SDS011;34054;52.100;5.116;2023-06-19T02:20:09;5.32;;;3.75;;
43511;SDS011;34054;52.100;5.116;2023-06-19T02:20:42;3.60;;;2.55;;
43511;SDS011;34054;52.100;5.116;2023-06-19T02:21:13;3.38;;;2.40;;
43511;SDS011;34054;52.100;5.116;2023-06-19T02:21:45;3.92;;;2.60;;
43511;SDS011;34054;52.100;5.116;2023-06-19T02:22:17;5.43;;;4.07;;
43511;SDS011;34054;52.100;5.116;2023-06-19T02:22:48;3.85;;;2.78;;
43511;SDS011;34054;52.100;5.116;2023-06-19T02:23:22;3.92;;;3.17;;
43511;SDS011;34054;52.100;5.116;2023-06-19T02:23:53;4.68;;;3.08;;
43511;SDS011;34054;52.100;5.116;2023-06-19T02:24:24;4.47;;;3.05;;
43511;SDS011;34054;52.100;5.116;2023-06-19T02:24:56;9.50;;;2.90;;
43511;SDS011;34054;52.100;5.116;2023-06-19T02:25:27;4.20;;;3.30;;
43511;SDS011;34054;52.100;5.116;2023-06-19T02:25:59;3.42;;;3.00;;
43511;SDS011;34054;52.100;5.116;2023-06-19T02:26:31;7.53;;;2.97;;
43511;SDS011;34054;52.100;5.116;2023-06-19T02:27:02;4.18;;;2.72;;
43511;SDS011;34054;52.100;5.116;2023-06-19T02:27:34;3.10;;;2.67;;
43511;SDS011;34054;52.100;5.116;2023-06-19T02:28:05;4.88;;;3.45;;
43511;SDS011;34054;52.100;5.116;2023-06-19T02:28:37;3.58;;;3.05;;
43511;SDS011;34054;52.100;5.116;2023-06-19T02:29:08;3.95;;;2.78;;
43511;SDS011;34054;52.100;5.116;2023-06-19T02:29:39;5.22;;;2.38;;
43511;SDS011;34054;52.100;5.116;2023-06-19T02:30:12;4.72;;;3.15;;
43511;SDS011;34054;52.100;5.116;2023-06-19T02:30:43;4.43;;;3.63;;
43511;SDS011;34054;52.100;5.116;2023-06-19T02:31:15;3.88;;;3.47;;
43511;SDS011;34054;52.100;5.116;2023-06-19T02:31:47;3.55;;;2.88;;
43511;SDS011;34054;52.100;5.116;2023-06-19T02:32:18;5.05;;;3.35;;
43511;SDS011;34054;52.100;5.116;2023-06-19T02:32:49;4.18;;;3.25;;
43511;SDS011;34054;52.100;5.116;2023-06-19T02:33:22;4.75;;;3.42;;
43511;SDS011;34054;52.100;5.116;2023-06-19T02:33:53;2.97;;;1.67;;
43511;SDS011;34054;52.100;5.116;2023-06-19T02:34:24;5.45;;;3.75;;
43511;SDS011;34054;52.100;5.116;2023-06-19T02:34:55;3.15;;;2.45;;
43511;SDS011;34054;52.100;5.116;2023-06-19T02:35:29;5.50;;;3.80;;
43511;SDS011;34054;52.100;5.116;2023-06-19T02:36:00;6.22;;;3.53;;
43511;SDS011;34054;52.100;5.116;2023-06-19T02:36:32;3.80;;;2.70;;
43511;SDS011;34054;52.100;5.116;2023-06-19T02:37:03;3.80;;;3.17;;
43511;SDS011;34054;52.100;5.116;2023-06-19T02:37:36;4.35;;;3.42;;
43511;SDS011;34054;52.100;5.116;2023-06-19T02:38:08;4.30;;;3.45;;
43511;SDS011;34054;52.100;5.116;2023-06-19T02:38:40;3.78;;;2.67;;
43511;SDS011;34054;52.100;5.116;2023-06-19T02:39:15;3.80;;;3.35;;
43511;SDS011;34054;52.100;5.116;2023-06-19T02:39:48;9.30;;;2.67;;
43511;SDS011;34054;52.100;5.116;2023-06-19T02:40:20;3.22;;;2.78;;
43511;SDS011;34054;52.100;5.116;2023-06-19T02:40:51;3.83;;;2.88;;
43511;SDS011;34054;52.100;5.116;2023-06-19T02:41:22;3.97;;;3.10;;
43511;SDS011;34054;52.100;5.116;2023-06-19T02:41:54;4.60;;;2.35;;
43511;SDS011;34054;52.100;5.116;2023-06-19T02:42:26;4.15;;;2.53;;
43511;SDS011;34054;52.100;5.116;2023-06-19T02:42:57;3.35;;;3.05;;
43511;SDS011;34054;52.100;5.116;2023-06-19T02:43:28;5.80;;;3.40;;
43511;SDS011;34054;52.100;5.116;2023-06-19T02:44:01;5.70;;;3.10;;
43511;SDS011;34054;52.100;5.116;2023-06-19T02:44:32;6.70;;;3.80;;
43511;SDS011;34054;52.100;5.116;2023-06-19T02:45:04;5.22;;;4.07;;
43511;SDS011;34054;52.100;5.116;2023-06-19T02:45:37;5.53;;;2.28;;
43511;SDS011;34054;52.100;5.116;2023-06-19T02:46:08;7.55;;;2.85;;
43511;SDS011;34054;52.100;5.116;2023-06-19T02:46:39;6.22;;;2.45;;
43511;SDS011;34054;52.100;5.116;2023-06-19T02:47:11;4.32;;;3.20;;
43511;SDS011;34054;52.100;5.116;2023-06-19T02:47:42;4.25;;;3.00;;
43511;SDS011;34054;52.100;5.116;2023-06-19T02:48:14;4.75;;;3.33;;
43511;SDS011;34054;52.100;5.116;2023-06-19T02:48:47;5.90;;;4.32;;
43511;SDS011;34054;52.100;5.116;2023-06-19T02:49:18;3.55;;;2.88;;
43511;SDS011;34054;52.100;5.116;2023-06-19T02:49:49;6.05;;;2.72;;
43511;SDS011;34054;52.100;5.116;2023-06-19T02:50:21;6.78;;;3.47;;
43511;SDS011;34054;52.100;5.116;2023-06-19T02:50:53;3.45;;;3.15;;
43511;SDS011;34054;52.100;5.116;2023-06-19T02:51:24;5.15;;;3.78;;
43511;SDS011;34054;52.100;5.116;2023-06-19T02:51:56;5.18;;;4.32;;
43511;SDS011;34054;52.100;5.116;2023-06-19T02:52:27;5.95;;;4.18;;
43511;SDS011;34054;52.100;5.116;2023-06-19T02:52:59;5.10;;;3.78;;
43511;SDS011;34054;52.100;5.116;2023-06-19T02:53:31;5.68;;;4.50;;
43511;SDS011;34054;52.100;5.116;2023-06-19T02:54:03;4.53;;;3.35;;
43511;SDS011;34054;52.100;5.116;2023-06-19T02:54:34;3.42;;;3.13;;
43511;SDS011;34054;52.100;5.116;2023-06-19T02:55:07;5.07;;;3.55;;
43511;SDS011;34054;52.100;5.116;2023-06-19T02:55:39;6.68;;;3.40;;
43511;SDS011;34054;52.100;5.116;2023-06-19T02:56:10;8.10;;;4.80;;
43511;SDS011;34054;52.100;5.116;2023-06-19T02:56:42;5.75;;;3.97;;
43511;SDS011;34054;52.100;5.116;2023-06-19T02:57:14;6.20;;;4.25;;
43511;SDS011;34054;52.100;5.116;2023-06-19T02:57:45;6.68;;;4.03;;
43511;SDS011;34054;52.100;5.116;2023-06-19T02:58:18;5.05;;;3.72;;
43511;SDS011;34054;52.100;5.116;2023-06-19T02:58:50;4.30;;;3.25;;
43511;SDS011;34054;52.100;5.116;2023-06-19T02:59:21;7.50;;;4.45;;
43511;SDS011;34054;52.100;5.116;2023-06-19T02:59:52;4.00;;;3.08;;
43511;SDS011;34054;52.100;5.116;2023-06-19T03:00:25;5.65;;;4.57;;
43511;SDS011;34054;52.100;5.116;2023-06-19T03:00:59;4.28;;;3.38;;
43511;SDS011;34054;52.100;5.116;2023-06-19T03:01:30;3.58;;;2.80;;
43511;SDS011;34054;52.100;5.116;2023-06-19T03:02:02;4.70;;;2.55;;
43511;SDS011;34054;52.100;5.116;2023-06-19T03:02:34;6.43;;;4.90;;
43511;SDS011;34054;52.100;5.116;2023-06-19T03:03:05;4.45;;;3.70;;
43511;SDS011;34054;52.100;5.116;2023-06-19T03:03:36;5.68;;;4.03;;
43511;SDS011;34054;52.100;5.116;2023-06-19T03:04:08;6.75;;;4.85;;
43511;SDS011;34054;52.100;5.116;2023-06-19T03:04:40;5.03;;;4.25;;
43511;SDS011;34054;52.100;5.116;2023-06-19T03:05:11;4.10;;;3.67;;
43511;SDS011;34054;52.100;5.116;2023-06-19T03:05:45;8.25;;;3.92;;
43511;SDS011;34054;52.100;5.116;2023-06-19T03:06:16;5.25;;;4.32;;
43511;SDS011;34054;52.100;5.116;2023-06-19T03:06:48;4.57;;;3.85;;
43511;SDS011;34054;52.100;5.116;2023-06-19T03:07:20;7.10;;;3.97;;
43511;SDS011;34054;52.100;5.116;2023-06-19T03:07:52;5.20;;;4.35;;
43511;SDS011;34054;52.100;5.116;2023-06-19T03:08:23;3.90;;;3.13;;
43511;SDS011;34054;52.100;5.116;2023-06-19T03:08:55;6.80;;;5.38;;
43511;SDS011;34054;52.100;5.116;2023-06-19T03:09:28;5.43;;;4.88;;
43511;SDS011;34054;52.100;5.116;2023-06-19T03:09:59;6.22;;;4.97;;
43511;SDS011;34054;52.100;5.116;2023-06-19T03:10:31;4.88;;;4.25;;
43511;SDS011;34054;52.100;5.116;2023-06-19T03:11:03;6.90;;;4.72;;
43511;SDS011;34054;52.100;5.116;2023-06-19T03:11:35;4.75;;;3.65;;
43511;SDS011;34054;52.100;5.116;2023-06-19T03:12:07;8.15;;;5.32;;
43511;SDS011;34054;52.100;5.116;2023-06-19T03:12:40;4.68;;;3.92;;
43511;SDS011;34054;52.100;5.116;2023-06-19T03:13:12;5.38;;;4.88;;
43511;SDS011;34054;52.100;5.116;2023-06-19T03:13:44;6.78;;;4.57;;
43511;SDS011;34054;52.100;5.116;2023-06-19T03:14:17;6.15;;;5.53;;
43511;SDS011;34054;52.100;5.116;2023-06-19T03:14:48;4.88;;;4.05;;
43511;SDS011;34054;52.100;5.116;2023-06-19T03:15:20;14.25;;;5.40;;
43511;SDS011;34054;52.100;5.116;2023-06-19T03:15:53;5.93;;;5.22;;